createdAt,value
2019-06-26T00:00:25.981Z,84.94
2019-06-26T00:01:25.937Z,85.92
2019-06-26T00:02:25.900Z,86.30
2019-06-26T00:03:25.865Z,86.50
2019-06-26T00:04:25.819Z,87.18
2019-06-26T00:05:25.780Z,87.18
2019-06-26T00:06:25.742Z,86.89
2019-06-26T00:07:25.707Z,87.27
2019-06-26T00:08:25.664Z,87.57
2019-06-26T00:09:25.621Z,87.43
2019-06-26T00:10:25.590Z,88.20
2019-06-26T00:11:25.544Z,88.10
2019-06-26T00:12:25.502Z,88.79
2019-06-26T00:13:26.873Z,88.59
2019-06-26T00:14:25.457Z,88.88
2019-06-26T00:15:25.384Z,89.27
2019-06-26T00:16:25.346Z,88.98
2019-06-26T00:17:25.303Z,89.66
2019-06-26T00:18:25.264Z,89.47
2019-06-26T00:19:25.224Z,90.14
2019-06-26T00:20:25.190Z,90.82
2019-06-26T00:21:25.141Z,90.92
2019-06-26T00:22:25.113Z,91.27
2019-06-26T00:23:25.069Z,90.63
2019-06-26T00:24:25.026Z,90.97
2019-06-26T00:25:24.985Z,91.27
2019-06-26T00:26:24.944Z,91.55
2019-06-26T00:27:24.910Z,91.27
2019-06-26T00:28:24.869Z,92.14
2019-06-26T00:29:24.823Z,91.85
2019-06-26T00:30:24.784Z,92.23
2019-06-26T00:31:24.746Z,93.30
2019-06-26T00:32:24.704Z,92.82
2019-06-26T00:33:24.662Z,93.40
2019-06-26T00:34:24.623Z,93.88
2019-06-26T00:35:24.599Z,94.27
2019-06-26T00:36:24.545Z,94.46
2019-06-26T00:37:24.510Z,94.66
2019-06-26T00:38:24.461Z,94.42
2019-06-26T00:39:24.422Z,94.23
2019-06-26T00:40:24.387Z,94.81
2019-06-26T00:41:24.342Z,94.81
2019-06-26T00:42:24.306Z,95.19
2019-06-26T00:43:24.268Z,95.58
2019-06-26T00:44:24.221Z,95.29
2019-06-26T00:45:24.187Z,95.78
2019-06-26T00:46:24.144Z,95.78
2019-06-26T00:47:24.105Z,96.55
2019-06-26T00:48:24.072Z,96.16
2019-06-26T00:49:24.021Z,96.45
2019-06-26T00:50:23.990Z,97.03
2019-06-26T00:51:23.945Z,97.03
2019-06-26T00:52:23.901Z,96.75
2019-06-26T00:53:23.860Z,97.67
2019-06-26T00:54:23.822Z,97.81
2019-06-26T00:55:23.782Z,98.00
2019-06-26T00:56:23.741Z,98.00
2019-06-26T00:57:23.706Z,97.61
2019-06-26T00:58:23.665Z,98.15
2019-06-26T00:59:23.622Z,98.44
2019-06-26T01:00:23.579Z,98.54
2019-06-26T01:01:23.572Z,98.93
2019-06-26T01:02:23.502Z,98.83
2019-06-26T01:03:23.458Z,98.73
2019-06-26T01:04:23.420Z,99.70
2019-06-26T01:05:23.407Z,99.41
2019-06-26T01:06:23.338Z,99.99
2019-06-26T01:07:23.301Z,99.99
2019-06-26T01:08:23.259Z,99.99
2019-06-26T01:09:23.217Z,99.99
2019-06-26T01:10:23.179Z,99.99
2019-06-26T01:11:23.137Z,99.99
2019-06-26T01:12:23.099Z,99.99
2019-06-26T01:13:23.068Z,99.99
2019-06-26T01:14:23.026Z,99.99
2019-06-26T01:15:23.000Z,99.99
2019-06-26T01:16:22.972Z,99.99
2019-06-26T01:17:22.900Z,99.99
2019-06-26T01:18:22.864Z,99.99
2019-06-26T01:19:22.816Z,99.99
2019-06-26T01:20:22.778Z,99.99
2019-06-26T01:21:22.737Z,99.99
2019-06-26T01:22:22.694Z,99.99
2019-06-26T01:23:22.653Z,99.99
2019-06-26T01:24:22.616Z,99.99
2019-06-26T01:25:22.574Z,99.99
2019-06-26T01:26:22.535Z,99.99
2019-06-26T01:27:22.492Z,99.99
2019-06-26T01:28:22.452Z,99.99
2019-06-26T01:29:22.411Z,99.99
2019-06-26T01:30:22.371Z,99.99
2019-06-26T01:31:22.332Z,99.99
2019-06-26T01:32:22.290Z,99.99
2019-06-26T01:33:22.250Z,99.99
2019-06-26T01:34:22.210Z,99.99
2019-06-26T01:35:22.166Z,99.99
2019-06-26T01:36:22.128Z,99.99
2019-06-26T01:37:22.088Z,99.99
2019-06-26T01:38:22.049Z,99.99
2019-06-26T01:39:22.004Z,99.99
2019-06-26T01:40:21.967Z,99.99
2019-06-26T01:41:21.932Z,99.99
2019-06-26T01:42:21.888Z,99.99
2019-06-26T01:43:21.845Z,99.99
2019-06-26T01:44:21.803Z,99.99
2019-06-26T01:45:21.764Z,99.99
2019-06-26T01:47:21.684Z,99.99
2019-06-26T01:48:21.643Z,99.99
2019-06-26T01:49:21.602Z,99.99
2019-06-26T01:50:21.559Z,99.99
2019-06-26T01:51:21.521Z,99.99
2019-06-26T01:52:21.480Z,99.99
2019-06-26T01:53:21.436Z,99.99
2019-06-26T01:54:21.399Z,99.99
2019-06-26T01:56:21.319Z,99.99
2019-06-26T01:57:21.277Z,99.99
2019-06-26T01:58:21.239Z,99.99
2019-06-26T01:59:21.197Z,99.99
2019-06-26T02:00:21.154Z,99.99
2019-06-26T02:01:21.112Z,99.99
2019-06-26T02:02:21.080Z,99.99
2019-06-26T02:03:21.033Z,99.99
2019-06-26T02:04:20.993Z,99.99
2019-06-26T02:05:21.019Z,99.99
2019-06-26T02:06:20.914Z,99.99
2019-06-26T02:07:20.874Z,99.99
2019-06-26T02:08:20.829Z,99.99
2019-06-26T02:09:20.794Z,99.99
2019-06-26T02:10:20.755Z,99.99
2019-06-26T02:11:20.739Z,99.99
2019-06-26T02:12:20.666Z,99.99
2019-06-26T02:13:20.626Z,99.99
2019-06-26T02:14:30.419Z,99.99
2019-06-26T02:16:20.502Z,99.99
2019-06-26T02:17:20.464Z,99.99
2019-06-26T02:18:20.425Z,99.99
2019-06-26T02:19:20.385Z,99.99
2019-06-26T02:20:20.342Z,99.99
2019-06-26T02:21:20.299Z,99.99
2019-06-26T02:22:20.258Z,99.99
2019-06-26T02:23:20.218Z,99.99
2019-06-26T02:24:20.176Z,99.99
2019-06-26T02:25:20.159Z,99.99
2019-06-26T02:26:20.096Z,99.99
2019-06-26T02:27:20.059Z,99.99
2019-06-26T02:28:20.015Z,99.99
2019-06-26T02:29:19.993Z,99.99
2019-06-26T02:30:19.933Z,99.99
2019-06-26T02:31:19.904Z,99.99
2019-06-26T02:32:19.889Z,99.99
2019-06-26T02:33:19.827Z,99.99
2019-06-26T02:34:19.779Z,99.99
2019-06-26T02:35:19.738Z,99.99
2019-06-26T02:36:19.697Z,99.99
2019-06-26T02:37:19.655Z,99.99
2019-06-26T02:38:19.615Z,99.99
2019-06-26T02:39:19.581Z,99.99
2019-06-26T02:40:19.537Z,99.99
2019-06-26T02:41:19.496Z,99.99
2019-06-26T02:42:19.456Z,99.99
2019-06-26T02:43:19.413Z,99.99
2019-06-26T02:44:19.372Z,99.99
2019-06-26T02:45:19.330Z,99.99
2019-06-26T02:46:19.294Z,99.99
2019-06-26T02:47:20.912Z,99.99
2019-06-26T02:48:19.236Z,99.99
2019-06-26T02:49:19.180Z,99.99
2019-06-26T02:50:19.125Z,99.99
2019-06-26T02:51:19.090Z,99.99
2019-06-26T02:52:19.056Z,99.99
2019-06-26T02:53:19.002Z,99.99
2019-06-26T02:54:18.974Z,99.99
2019-06-26T02:55:18.921Z,99.99
2019-06-26T02:56:18.884Z,99.99
2019-06-26T02:57:18.846Z,99.99
2019-06-26T02:58:18.806Z,99.99
2019-06-26T02:59:18.766Z,99.99
2019-06-26T03:00:18.723Z,99.99
2019-06-26T03:01:18.698Z,99.99
2019-06-26T03:02:18.637Z,99.99
2019-06-26T03:03:18.619Z,99.99
2019-06-26T03:04:18.555Z,99.99
2019-06-26T03:05:18.513Z,99.99
2019-06-26T03:06:18.477Z,99.99
2019-06-26T03:07:18.435Z,99.99
2019-06-26T03:08:18.395Z,99.99
2019-06-26T03:09:18.350Z,99.99
2019-06-26T03:10:18.314Z,99.99
2019-06-26T03:11:18.292Z,99.99
2019-06-26T03:12:18.227Z,99.99
2019-06-26T03:13:18.186Z,99.99
2019-06-26T03:14:18.147Z,99.99
2019-06-26T03:15:18.104Z,99.99
2019-06-26T03:16:18.062Z,99.99
2019-06-26T03:17:18.021Z,99.99
2019-06-26T03:18:17.980Z,99.99
2019-06-26T03:19:17.941Z,99.99
2019-06-26T03:20:17.896Z,99.99
2019-06-26T03:21:17.858Z,99.99
2019-06-26T03:22:17.815Z,99.99
2019-06-26T03:23:17.779Z,99.99
2019-06-26T03:24:17.733Z,99.99
2019-06-26T03:25:17.690Z,99.99
2019-06-26T03:26:17.650Z,99.99
2019-06-26T03:27:17.610Z,99.99
2019-06-26T03:28:17.568Z,99.99
2019-06-26T03:29:17.528Z,99.99
2019-06-26T03:30:17.489Z,99.99
2019-06-26T03:31:17.448Z,99.99
2019-06-26T03:32:17.454Z,99.99
2019-06-26T03:33:17.364Z,99.99
2019-06-26T03:34:17.320Z,99.99
2019-06-26T03:35:17.284Z,99.99
2019-06-26T03:36:17.243Z,99.99
2019-06-26T03:37:17.199Z,99.99
2019-06-26T03:38:17.161Z,99.99
2019-06-26T03:39:17.120Z,99.99
2019-06-26T03:40:17.086Z,99.99
2019-06-26T03:41:17.070Z,99.99
2019-06-26T03:42:16.997Z,99.99
2019-06-26T03:43:16.954Z,99.99
2019-06-26T03:44:16.914Z,99.99
2019-06-26T03:45:25.872Z,99.99
2019-06-26T03:46:16.831Z,99.99
2019-06-26T03:47:16.790Z,99.99
2019-06-26T03:48:16.744Z,99.99
2019-06-26T03:49:16.709Z,99.99
2019-06-26T03:50:16.664Z,99.99
2019-06-26T03:51:16.637Z,99.99
2019-06-26T03:52:16.582Z,99.99
2019-06-26T03:53:16.543Z,99.99
2019-06-26T03:54:16.500Z,99.99
2019-06-26T03:55:16.476Z,99.99
2019-06-26T03:56:16.421Z,99.99
2019-06-26T03:57:16.374Z,99.99
2019-06-26T03:58:16.332Z,99.99
2019-06-26T03:59:16.298Z,99.99
2019-06-26T04:00:16.255Z,99.99
2019-06-26T04:01:16.214Z,99.99
2019-06-26T04:02:16.173Z,99.99
2019-06-26T04:03:16.139Z,99.99
2019-06-26T04:04:16.092Z,99.99
2019-06-26T04:05:16.047Z,99.99
2019-06-26T04:06:16.008Z,99.99
2019-06-26T04:07:15.966Z,99.99
2019-06-26T04:08:18.380Z,99.99
2019-06-26T04:09:15.890Z,99.99
2019-06-26T04:10:15.845Z,99.99
2019-06-26T04:11:15.804Z,99.99
2019-06-26T04:12:15.775Z,99.99
2019-06-26T04:13:15.719Z,99.99
2019-06-26T04:14:15.681Z,99.99
2019-06-26T04:15:15.637Z,99.99
2019-06-26T04:16:15.598Z,99.99
2019-06-26T04:17:15.578Z,99.99
2019-06-26T04:18:15.514Z,99.99
2019-06-26T04:19:15.474Z,99.99
2019-06-26T04:20:15.435Z,99.99
2019-06-26T04:21:15.401Z,99.99
2019-06-26T04:22:15.351Z,99.99
2019-06-26T04:23:15.312Z,99.99
2019-06-26T04:24:15.272Z,99.99
2019-06-26T04:25:15.226Z,99.99
2019-06-26T04:26:15.198Z,99.99
2019-06-26T04:27:15.147Z,99.99
2019-06-26T04:28:15.109Z,99.99
2019-06-26T04:29:15.064Z,99.99
2019-06-26T04:30:15.026Z,99.99
2019-06-26T04:31:15.006Z,99.99
2019-06-26T04:32:14.942Z,99.99
2019-06-26T04:33:14.905Z,99.99
2019-06-26T04:34:14.862Z,99.99
2019-06-26T04:35:14.824Z,99.99
2019-06-26T04:36:14.778Z,99.99
2019-06-26T04:37:14.744Z,99.99
2019-06-26T04:38:14.693Z,99.99
2019-06-26T04:39:14.659Z,99.99
2019-06-26T04:40:14.612Z,99.99
2019-06-26T04:41:14.573Z,99.99
2019-06-26T04:42:14.533Z,99.99
2019-06-26T04:43:14.489Z,99.99
2019-06-26T04:44:14.455Z,99.99
2019-06-26T04:46:39.407Z,99.99
2019-06-26T04:47:39.158Z,99.99
2019-06-26T04:48:39.114Z,99.99
2019-06-26T04:49:39.079Z,99.99
2019-06-26T04:50:39.046Z,99.99
2019-06-26T04:51:38.988Z,99.99
2019-06-26T04:52:38.956Z,99.99
2019-06-26T04:53:38.909Z,99.99
2019-06-26T04:54:38.869Z,99.99
2019-06-26T04:55:38.826Z,99.99
2019-06-26T04:56:38.784Z,99.99
2019-06-26T04:57:38.743Z,99.99
2019-06-26T04:58:38.763Z,99.99
2019-06-26T04:59:38.691Z,99.99
2019-06-26T05:00:38.622Z,99.99
2019-06-26T05:01:38.584Z,99.99
2019-06-26T05:02:38.540Z,99.99
2019-06-26T05:03:38.505Z,99.99
2019-06-26T05:04:38.469Z,99.99
2019-06-26T05:05:39.841Z,99.99
2019-06-26T05:06:38.388Z,99.99
2019-06-26T05:07:38.335Z,99.99
2019-06-26T05:08:38.301Z,99.99
2019-06-26T05:09:38.257Z,99.99
2019-06-26T05:10:38.216Z,99.99
2019-06-26T05:11:38.175Z,99.99
2019-06-26T05:12:38.136Z,99.99
2019-06-26T05:13:38.094Z,99.99
2019-06-26T05:14:38.049Z,99.99
2019-06-26T05:15:38.010Z,99.99
2019-06-26T05:16:37.967Z,99.99
2019-06-26T05:17:37.930Z,99.99
2019-06-26T05:18:37.889Z,99.99
2019-06-26T05:19:37.847Z,99.99
2019-06-26T05:21:37.765Z,99.99
2019-06-26T05:22:37.726Z,99.99
2019-06-26T05:24:37.641Z,99.99
2019-06-26T05:25:37.602Z,99.99
2019-06-26T05:26:37.570Z,99.99
2019-06-26T05:27:37.523Z,99.99
2019-06-26T05:28:37.480Z,99.99
2019-06-26T05:29:37.440Z,99.99
2019-06-26T05:30:37.409Z,99.99
2019-06-26T05:31:37.357Z,99.65
2019-06-26T05:32:37.320Z,99.17
2019-06-26T05:33:37.277Z,98.97
2019-06-26T05:34:37.263Z,99.46
2019-06-26T05:35:37.195Z,98.58
2019-06-26T05:36:37.153Z,98.30
2019-06-26T05:37:37.119Z,98.97
2019-06-26T05:38:37.071Z,98.58
2019-06-26T05:39:37.031Z,98.39
2019-06-26T05:40:36.994Z,98.30
2019-06-26T05:41:36.951Z,98.10
2019-06-26T05:42:36.910Z,98.00
2019-06-26T05:43:36.869Z,97.91
2019-06-26T05:44:36.827Z,97.62
2019-06-26T05:45:36.802Z,98.00
2019-06-26T05:46:36.746Z,97.42
2019-06-26T05:47:36.707Z,97.42
2019-06-26T05:48:36.685Z,97.71
2019-06-26T05:49:36.626Z,96.55
2019-06-26T05:50:36.584Z,97.03
2019-06-26T05:51:36.542Z,97.81
2019-06-26T05:52:36.504Z,97.13
2019-06-26T05:53:36.467Z,97.62
2019-06-26T05:54:36.422Z,96.75
2019-06-26T05:55:36.384Z,96.94
2019-06-26T05:56:36.342Z,97.03
2019-06-26T05:57:36.304Z,96.26
2019-06-26T05:58:36.259Z,96.65
2019-06-26T05:59:36.218Z,95.97
2019-06-26T06:00:36.181Z,96.26
2019-06-26T06:01:36.147Z,95.20
2019-06-26T06:02:36.105Z,95.58
2019-06-26T06:03:36.069Z,95.58
2019-06-26T06:04:36.014Z,95.49
2019-06-26T06:05:35.974Z,95.10
2019-06-26T06:06:41.598Z,95.78
2019-06-26T06:08:35.858Z,95.29
2019-06-26T06:09:35.813Z,94.71
2019-06-26T06:10:35.782Z,94.32
2019-06-26T06:11:35.738Z,93.84
2019-06-26T06:12:35.692Z,94.04
2019-06-26T06:13:35.650Z,93.45
2019-06-26T06:14:35.609Z,93.55
2019-06-26T06:15:35.573Z,93.94
2019-06-26T06:16:46.843Z,93.35
2019-06-26T06:17:35.528Z,93.45
2019-06-26T06:18:35.449Z,93.94
2019-06-26T06:19:35.406Z,92.97
2019-06-26T06:20:35.381Z,92.97
2019-06-26T06:21:35.326Z,93.55
2019-06-26T06:22:35.291Z,93.94
2019-06-26T06:23:35.245Z,94.04
2019-06-26T06:24:37.836Z,94.18
2019-06-26T06:25:35.164Z,93.40
2019-06-26T06:26:35.124Z,92.97
2019-06-26T06:27:35.081Z,92.77
2019-06-26T06:28:35.044Z,92.77
2019-06-26T06:29:35.017Z,93.30
2019-06-26T06:30:34.966Z,93.21
2019-06-26T06:31:34.987Z,93.16
2019-06-26T06:32:34.888Z,92.77
2019-06-26T06:33:34.839Z,92.77
2019-06-26T06:34:34.797Z,93.30
2019-06-26T06:36:34.717Z,92.87
2019-06-26T06:37:34.680Z,92.53
2019-06-26T06:38:34.651Z,92.82
2019-06-26T06:39:34.594Z,93.60
2019-06-26T06:40:34.554Z,93.60
2019-06-26T06:41:34.513Z,92.82
2019-06-26T06:42:34.474Z,93.40
2019-06-26T06:43:34.433Z,92.72
2019-06-26T06:44:34.404Z,93.21
2019-06-26T06:45:34.359Z,93.40
2019-06-26T06:46:34.312Z,92.82
2019-06-26T06:47:34.272Z,92.63
2019-06-26T06:48:34.234Z,92.72
2019-06-26T06:49:34.190Z,92.82
2019-06-26T06:50:34.150Z,93.02
2019-06-26T06:51:34.112Z,92.82
2019-06-26T06:52:34.070Z,93.02
2019-06-26T06:53:34.037Z,92.92
2019-06-26T06:54:33.986Z,92.14
2019-06-26T06:55:33.946Z,92.53
2019-06-26T06:56:33.911Z,92.72
2019-06-26T06:57:33.868Z,92.24
2019-06-26T06:58:33.829Z,91.66
2019-06-26T06:59:33.789Z,91.85
2019-06-26T07:00:33.809Z,92.24
2019-06-26T07:01:33.706Z,93.11
2019-06-26T07:02:33.665Z,92.63
2019-06-26T07:03:33.633Z,93.02
2019-06-26T07:04:33.583Z,92.14
2019-06-26T07:05:33.542Z,91.31
2019-06-26T07:06:33.568Z,91.02
2019-06-26T07:07:33.465Z,90.54
2019-06-26T07:08:33.423Z,90.16
2019-06-26T07:09:33.380Z,89.28
2019-06-26T07:10:33.341Z,88.70
2019-06-26T07:11:33.306Z,88.70
2019-06-26T07:12:33.363Z,88.51
2019-06-26T07:13:33.268Z,88.79
2019-06-26T07:14:33.182Z,88.79
2019-06-26T07:15:33.144Z,88.79
2019-06-26T07:16:33.103Z,88.17
2019-06-26T07:17:33.061Z,88.02
2019-06-26T07:18:33.017Z,87.15
2019-06-26T07:19:32.993Z,87.54
2019-06-26T07:20:32.942Z,88.12
2019-06-26T07:21:32.899Z,87.92
2019-06-26T07:22:33.156Z,88.89
2019-06-26T07:23:32.816Z,87.82
2019-06-26T07:24:32.779Z,88.21
2019-06-26T07:25:32.738Z,87.73
2019-06-26T07:26:32.693Z,87.92
2019-06-26T07:27:32.653Z,87.92
2019-06-26T07:28:32.621Z,88.31
2019-06-26T07:29:32.574Z,88.51
2019-06-26T07:30:32.530Z,88.02
2019-06-26T07:31:32.496Z,88.70
2019-06-26T07:32:32.455Z,87.82
2019-06-26T07:33:32.417Z,88.02
2019-06-26T07:34:32.374Z,88.12
2019-06-26T07:35:32.330Z,88.21
2019-06-26T07:36:32.298Z,87.92
2019-06-26T07:37:32.251Z,87.96
2019-06-26T07:38:32.215Z,86.99
2019-06-26T07:39:32.170Z,87.58
2019-06-26T07:40:32.138Z,87.38
2019-06-26T07:41:32.092Z,87.19
2019-06-26T07:42:32.054Z,87.29
2019-06-26T07:43:32.014Z,86.80
2019-06-26T07:44:31.982Z,86.02
2019-06-26T07:45:31.936Z,86.32
2019-06-26T07:46:31.892Z,86.32
2019-06-26T07:47:42.386Z,86.22
2019-06-26T07:48:31.819Z,86.32
2019-06-26T07:49:31.766Z,86.02
2019-06-26T07:50:32.717Z,86.61
2019-06-26T07:51:31.693Z,86.22
2019-06-26T07:52:31.651Z,85.74
2019-06-26T07:54:31.568Z,84.81
2019-06-26T07:55:31.533Z,84.71
2019-06-26T07:56:31.497Z,84.91
2019-06-26T07:57:31.452Z,85.19
2019-06-26T07:58:31.407Z,84.91
2019-06-26T07:59:31.402Z,84.61
2019-06-26T08:00:31.949Z,85.88
2019-06-26T08:01:31.293Z,86.07
2019-06-26T08:02:31.246Z,85.49
2019-06-26T08:03:31.224Z,85.10
2019-06-26T08:04:31.183Z,85.29
2019-06-26T08:05:31.130Z,85.58
2019-06-26T08:06:31.153Z,85.97
2019-06-26T08:07:31.052Z,86.50
2019-06-26T08:08:31.012Z,86.21
2019-06-26T08:09:30.975Z,86.11
2019-06-26T08:10:30.932Z,84.46
2019-06-26T08:11:30.890Z,84.36
2019-06-26T08:12:30.850Z,84.17
2019-06-26T08:13:30.813Z,83.00
2019-06-26T08:14:30.862Z,83.10
2019-06-26T08:15:30.734Z,83.49
2019-06-26T08:16:34.288Z,83.00
2019-06-26T08:17:30.648Z,83.00
2019-06-26T08:18:30.698Z,81.93
2019-06-26T08:19:30.583Z,82.42
2019-06-26T08:20:30.552Z,83.29
2019-06-26T08:21:30.495Z,83.72
2019-06-26T08:22:30.451Z,83.63
2019-06-26T08:23:30.433Z,83.14
2019-06-26T08:24:30.377Z,83.82
2019-06-26T08:25:30.333Z,84.41
2019-06-26T08:26:30.295Z,83.14
2019-06-26T08:27:30.256Z,82.17
2019-06-26T08:28:30.215Z,82.07
2019-06-26T08:29:30.172Z,81.49
2019-06-26T08:30:30.135Z,81.59
2019-06-26T08:31:30.099Z,81.92
2019-06-26T08:32:30.052Z,82.50
2019-06-26T08:33:30.018Z,81.20
2019-06-26T08:34:29.978Z,80.52
2019-06-26T08:35:29.950Z,80.46
2019-06-26T08:36:29.897Z,80.66
2019-06-26T08:37:29.856Z,81.34
2019-06-26T08:38:29.830Z,80.94
2019-06-26T08:39:29.783Z,80.46
2019-06-26T08:40:29.737Z,80.76
2019-06-26T08:41:29.701Z,80.85
2019-06-26T08:42:29.660Z,81.14
2019-06-26T08:43:31.506Z,80.56
2019-06-26T08:44:29.582Z,81.28
2019-06-26T08:45:29.542Z,80.07
2019-06-26T08:48:40.121Z,79.53
2019-06-26T08:49:36.646Z,78.85
2019-06-26T08:50:36.608Z,79.43
2019-06-26T08:51:36.565Z,78.85
2019-06-26T08:52:36.529Z,78.46
2019-06-26T08:53:36.498Z,78.17
2019-06-26T08:54:36.454Z,78.59
2019-06-26T08:55:36.408Z,79.33
2019-06-26T08:56:36.368Z,79.08
2019-06-26T08:57:36.335Z,78.30
2019-06-26T08:58:36.295Z,78.11
2019-06-26T08:59:36.271Z,77.23
2019-06-26T09:00:36.245Z,76.75
2019-06-26T09:01:36.174Z,78.11
2019-06-26T09:02:36.137Z,79.08
2019-06-26T09:03:36.097Z,78.59
2019-06-26T09:04:36.053Z,78.34
2019-06-26T09:05:47.627Z,78.50
2019-06-26T09:06:35.980Z,78.34
2019-06-26T09:07:35.941Z,77.66
2019-06-26T09:08:35.898Z,78.53
2019-06-26T09:09:35.926Z,77.47
2019-06-26T09:10:35.821Z,77.76
2019-06-26T09:11:35.781Z,77.08
2019-06-26T09:12:35.747Z,76.20
2019-06-26T09:13:35.814Z,76.01
2019-06-26T09:14:35.677Z,77.08
2019-06-26T09:15:35.629Z,76.50
2019-06-26T09:16:35.590Z,76.50
2019-06-26T09:17:35.565Z,76.92
2019-06-26T09:18:36.323Z,76.04
2019-06-26T09:19:35.474Z,76.04
2019-06-26T09:20:35.431Z,74.78
2019-06-26T09:21:35.393Z,75.32
2019-06-26T09:22:35.358Z,75.36
2019-06-26T09:23:35.316Z,75.36
2019-06-26T09:24:35.306Z,75.56
2019-06-26T09:25:35.237Z,76.53
2019-06-26T09:26:35.230Z,76.04
2019-06-26T09:27:35.162Z,75.75
2019-06-26T09:28:35.122Z,75.85
2019-06-26T09:29:35.087Z,75.46
2019-06-26T09:30:35.047Z,74.04
2019-06-26T09:31:35.012Z,73.45
2019-06-26T09:32:34.969Z,73.90
2019-06-26T09:33:34.932Z,74.52
2019-06-26T09:34:34.905Z,73.65
2019-06-26T09:35:34.849Z,74.33
2019-06-26T09:36:34.818Z,74.04
2019-06-26T09:37:34.781Z,74.04
2019-06-26T09:38:34.743Z,74.23
2019-06-26T09:39:34.702Z,73.94
2019-06-26T09:40:34.665Z,74.33
2019-06-26T09:41:34.630Z,73.39
2019-06-26T09:42:34.584Z,72.71
2019-06-26T09:43:34.543Z,73.10
2019-06-26T09:44:34.508Z,73.10
2019-06-26T09:45:34.469Z,72.02
2019-06-26T09:46:34.433Z,72.90
2019-06-26T09:47:34.395Z,72.90
2019-06-26T09:48:51.125Z,71.54
2019-06-26T09:49:34.313Z,71.83
2019-06-26T09:50:34.277Z,72.80
2019-06-26T09:51:34.247Z,72.94
2019-06-26T09:52:34.206Z,72.51
2019-06-26T09:53:46.650Z,72.51
2019-06-26T09:54:34.126Z,72.35
2019-06-26T09:55:34.085Z,72.55
2019-06-26T09:57:34.014Z,71.18
2019-06-26T09:58:33.972Z,71.96
2019-06-26T09:59:33.933Z,71.18
2019-06-26T10:00:33.895Z,71.86
2019-06-26T10:01:33.856Z,71.77
2019-06-26T10:02:33.816Z,72.06
2019-06-26T10:03:33.784Z,71.77
2019-06-26T10:04:33.745Z,72.68
2019-06-26T10:05:33.714Z,71.67
2019-06-26T10:06:33.667Z,72.78
2019-06-26T10:07:33.627Z,72.39
2019-06-26T10:08:33.588Z,71.80
2019-06-26T10:09:33.546Z,71.22
2019-06-26T10:10:33.509Z,71.12
2019-06-26T10:11:33.471Z,69.17
2019-06-26T10:12:33.442Z,71.02
2019-06-26T10:14:46.501Z,70.34
2019-06-26T10:15:33.321Z,70.53
2019-06-26T10:16:33.293Z,69.65
2019-06-26T10:17:33.246Z,70.67
2019-06-26T10:18:33.273Z,69.36
2019-06-26T10:19:33.172Z,69.56
2019-06-26T10:20:33.133Z,69.07
2019-06-26T10:21:33.099Z,69.17
2019-06-26T10:22:33.052Z,69.01
2019-06-26T10:23:33.018Z,69.69
2019-06-26T10:24:32.991Z,69.98
2019-06-26T10:25:32.984Z,69.40
2019-06-26T10:26:32.900Z,70.67
2019-06-26T10:27:32.863Z,71.06
2019-06-26T10:28:32.830Z,69.79
2019-06-26T10:29:32.786Z,69.01
2019-06-26T10:30:32.749Z,68.62
2019-06-26T10:31:32.721Z,67.83
2019-06-26T10:32:32.677Z,66.89
2019-06-26T10:33:32.643Z,67.68
2019-06-26T10:34:32.602Z,67.54
2019-06-26T10:35:32.564Z,66.89
2019-06-26T10:36:32.526Z,67.97
2019-06-26T10:38:32.446Z,67.48
2019-06-26T10:39:32.472Z,67.38
2019-06-26T10:40:32.377Z,66.60
2019-06-26T10:41:32.338Z,66.60
2019-06-26T10:42:32.303Z,67.68
2019-06-26T10:43:32.268Z,67.51
2019-06-26T10:44:32.218Z,66.80
2019-06-26T10:45:35.864Z,67.97
2019-06-26T10:46:32.145Z,67.02
2019-06-26T10:47:32.108Z,67.41
2019-06-26T10:48:32.104Z,67.22
2019-06-26T10:49:32.032Z,66.34
2019-06-26T10:50:32.001Z,66.73
2019-06-26T10:51:31.956Z,66.53
2019-06-26T10:52:31.923Z,66.05
2019-06-26T10:53:31.888Z,67.02
2019-06-26T10:54:31.846Z,66.47
2019-06-26T10:55:31.812Z,66.37
2019-06-26T10:56:31.774Z,66.56
2019-06-26T10:57:31.739Z,66.47
2019-06-26T10:58:31.697Z,65.98
2019-06-26T10:59:31.662Z,66.17
2019-06-26T11:00:31.624Z,65.59
2019-06-26T11:01:31.588Z,65.30
2019-06-26T11:02:31.551Z,65.30
2019-06-26T11:03:31.514Z,64.42
2019-06-26T11:04:31.474Z,64.61
2019-06-26T11:05:31.504Z,65.00
2019-06-26T11:06:31.403Z,65.03
2019-06-26T11:07:31.359Z,64.94
2019-06-26T11:08:31.353Z,64.64
2019-06-26T11:09:31.289Z,64.45
2019-06-26T11:10:31.252Z,64.54
2019-06-26T11:11:31.214Z,64.35
2019-06-26T11:12:31.174Z,64.64
2019-06-26T11:13:31.136Z,64.84
2019-06-26T11:14:31.104Z,64.09
2019-06-26T11:16:31.025Z,63.21
2019-06-26T11:17:30.998Z,62.42
2019-06-26T11:18:30.957Z,63.11
2019-06-26T11:19:43.287Z,63.40
2019-06-26T11:20:30.918Z,63.50
2019-06-26T11:21:30.844Z,64.22
2019-06-26T11:22:30.806Z,63.73
2019-06-26T11:23:30.770Z,62.45
2019-06-26T11:24:30.760Z,61.96
2019-06-26T11:25:30.691Z,61.77
2019-06-26T11:26:30.669Z,61.77
2019-06-26T11:27:30.628Z,61.38
2019-06-26T11:28:30.581Z,61.38
2019-06-26T11:29:30.550Z,62.95
2019-06-26T11:30:30.508Z,64.15
2019-06-26T11:31:30.483Z,63.07
2019-06-26T11:32:30.435Z,62.38
2019-06-26T11:33:30.408Z,62.19
2019-06-26T11:34:30.394Z,61.41
2019-06-26T11:35:30.329Z,61.70
2019-06-26T11:36:30.294Z,61.70
2019-06-26T11:37:30.253Z,60.82
2019-06-26T11:38:30.216Z,61.70
2019-06-26T11:39:30.177Z,62.81
2019-06-26T11:40:30.154Z,61.83
2019-06-26T11:41:30.106Z,61.34
2019-06-26T11:42:32.706Z,60.95
2019-06-26T11:43:30.031Z,60.75
2019-06-26T11:44:29.999Z,61.34
2019-06-26T11:45:29.960Z,59.28
2019-06-26T11:46:29.926Z,59.80
2019-06-26T11:47:29.891Z,60.19
2019-06-26T11:48:29.854Z,59.80
2019-06-26T11:49:29.820Z,59.90
2019-06-26T11:50:29.781Z,59.70
2019-06-26T11:51:29.742Z,58.92
2019-06-26T11:52:29.707Z,59.92
2019-06-26T11:53:29.670Z,58.95
2019-06-26T11:54:29.638Z,60.42
2019-06-26T11:55:29.599Z,60.42
2019-06-26T11:56:29.581Z,60.42
2019-06-26T11:57:29.539Z,59.56
2019-06-26T11:59:29.450Z,57.70
2019-06-26T12:00:29.413Z,56.62
2019-06-26T12:01:29.377Z,57.31
2019-06-26T12:02:29.344Z,58.68
2019-06-26T12:03:29.306Z,57.11
2019-06-26T12:04:29.274Z,56.82
2019-06-26T12:05:29.236Z,56.84
2019-06-26T12:07:16.586Z,57.04
2019-06-26T12:08:18.537Z,56.65
2019-06-26T12:09:16.519Z,56.45
2019-06-26T12:10:16.478Z,56.06
2019-06-26T12:11:16.446Z,57.34
2019-06-26T12:12:16.419Z,56.28
2019-06-26T12:13:16.388Z,55.79
2019-06-26T12:14:16.340Z,55.69
2019-06-26T12:15:16.302Z,55.82
2019-06-26T12:16:16.275Z,54.64
2019-06-26T12:17:16.238Z,53.88
2019-06-26T12:18:16.255Z,53.78
2019-06-26T12:19:19.082Z,53.58
2019-06-26T12:20:19.144Z,54.39
2019-06-26T12:21:16.087Z,53.02
2019-06-26T12:22:16.051Z,54.10
2019-06-26T12:23:16.015Z,53.02
2019-06-26T12:24:15.978Z,53.41
2019-06-26T12:25:15.943Z,53.12
2019-06-26T12:26:15.914Z,54.69
2019-06-26T12:27:15.898Z,53.91
2019-06-26T12:28:15.845Z,54.79
2019-06-26T12:29:15.802Z,54.30
2019-06-26T12:30:15.766Z,52.43
2019-06-26T12:31:15.741Z,53.02
2019-06-26T12:32:15.701Z,53.70
2019-06-26T12:33:15.677Z,52.36
2019-06-26T12:34:15.629Z,52.26
2019-06-26T12:35:15.596Z,52.26
2019-06-26T12:36:15.563Z,52.36
2019-06-26T12:37:15.525Z,52.75
2019-06-26T12:38:15.489Z,51.99
2019-06-26T12:39:15.453Z,52.28
2019-06-26T12:40:15.479Z,51.10
2019-06-26T12:41:15.389Z,51.30
2019-06-26T12:42:15.355Z,50.14
2019-06-26T12:43:15.314Z,51.72
2019-06-26T12:44:17.897Z,50.85
2019-06-26T12:45:15.248Z,51.25
2019-06-26T12:46:18.112Z,48.98
2019-06-26T12:47:15.181Z,48.98
2019-06-26T12:48:16.374Z,48.61
2019-06-26T12:49:15.112Z,48.91
2019-06-26T12:50:57.486Z,49.69
2019-06-26T12:51:57.424Z,49.82
2019-06-26T12:52:57.404Z,49.33
2019-06-26T12:53:58.483Z,48.75
2019-06-26T12:54:57.326Z,48.75
2019-06-26T12:55:57.296Z,48.88
2019-06-26T12:56:57.259Z,48.09
2019-06-26T12:58:11.729Z,47.13
2019-06-26T12:58:59.842Z,46.23
2019-06-26T12:59:58.093Z,47.34
2019-06-26T13:00:57.126Z,47.27
2019-06-26T13:01:57.094Z,46.20
2019-06-26T13:02:57.053Z,47.00
2019-06-26T13:03:57.022Z,47.74
2019-06-26T13:04:56.986Z,45.28
2019-06-26T13:05:56.955Z,43.99
2019-06-26T13:06:59.098Z,43.02
2019-06-26T13:07:56.887Z,42.45
2019-06-26T13:08:56.858Z,42.96
2019-06-26T13:09:56.827Z,41.77